Time;durP1;ratioP1;P1;durP2;ratioP2;P2;SDS_P1;SDS_P2;PMS_P1;PMS_P2;Temp;Humidity;BMP_temperature;BMP_pressure;BME280_temperature;BME280_humidity;BME280_pressure;Samples;Min_cycle;Max_cycle;Signal;HPM_P1;HPM_P2
2021/04/02 00:00:31;;;;;;;13.20;5.97;;;7.70;1.00;;;;;;5073469;28;20214;-79
2021/04/02 00:02:57;;;;;;;13.07;7.07;;;7.60;2.00;;;;;;5068747;28;20192;-79
2021/04/02 00:05:22;;;;;;;9.50;6.97;;;7.60;6.10;;;;;;5072904;28;20689;-81
2021/04/02 00:07:48;;;;;;;15.13;6.90;;;7.50;11.00;;;;;;5073470;28;20165;-80
2021/04/02 00:10:18;;;;;;;14.23;6.87;;;7.50;10.20;;;;;;5073571;28;20278;-80
2021/04/02 00:12:44;;;;;;;14.73;6.90;;;7.50;13.90;;;;;;5073466;28;20191;-79
2021/04/02 00:15:19;;;;;;;12.80;7.93;;;7.40;17.00;;;;;;5073183;28;20168;-81
2021/04/02 00:17:45;;;;;;;9.07;6.10;;;7.40;20.10;;;;;;5072920;28;20255;-79
2021/04/02 00:20:15;;;;;;;12.47;7.33;;;7.40;21.00;;;;;;5073056;28;20168;-78
2021/04/02 00:22:45;;;;;;;13.97;6.83;;;7.40;21.40;;;;;;5073039;28;20176;-80
2021/04/02 00:25:13;;;;;;;10.87;6.43;;;7.40;21.90;;;;;;5073269;28;20156;-80
2021/04/02 00:27:40;;;;;;;16.20;8.10;;;7.30;22.20;;;;;;5054954;28;20275;-78
2021/04/02 00:30:16;;;;;;;15.57;7.77;;;7.30;25.30;;;;;;5072946;28;20196;-80
2021/04/02 00:32:42;;;;;;;11.80;7.23;;;7.30;24.70;;;;;;5072441;28;20225;-79
2021/04/02 00:35:09;;;;;;;11.43;7.30;;;7.30;28.00;;;;;;5072997;28;20175;-79
2021/04/02 00:37:35;;;;;;;17.80;7.40;;;7.30;26.70;;;;;;5072800;28;20236;-80
2021/04/02 00:40:00;;;;;;;13.77;7.20;;;7.20;26.50;;;;;;5054928;28;20203;-78
2021/04/02 00:42:26;;;;;;;12.40;7.63;;;7.20;27.30;;;;;;5072875;28;20583;-80
2021/04/02 00:44:52;;;;;;;12.57;6.87;;;7.20;28.90;;;;;;5072968;28;20192;-79
2021/04/02 00:47:18;;;;;;;12.30;7.20;;;7.20;28.40;;;;;;5072562;28;20199;-79
2021/04/02 00:49:43;;;;;;;14.20;7.33;;;7.10;28.70;;;;;;5072530;28;20225;-79
2021/04/02 00:52:09;;;;;;;12.70;8.10;;;7.10;30.00;;;;;;5072201;28;20181;-79
2021/04/02 00:54:35;;;;;;;13.23;7.27;;;7.10;32.60;;;;;;5072788;28;20211;-79
2021/04/02 00:57:00;;;;;;;15.53;7.70;;;7.10;33.10;;;;;;5072846;28;20597;-80
2021/04/02 00:59:26;;;;;;;15.53;7.97;;;7.00;35.20;;;;;;5054452;28;20172;-80
2021/04/02 01:01:52;;;;;;;15.23;8.43;;;7.00;37.00;;;;;;5072195;28;20561;-81
2021/04/02 01:04:17;;;;;;;13.67;7.93;;;6.90;38.20;;;;;;5054839;28;20172;-80
2021/04/02 01:06:43;;;;;;;13.17;8.17;;;6.90;40.80;;;;;;5072614;28;20175;-80
2021/04/02 01:09:09;;;;;;;15.57;7.87;;;6.90;43.20;;;;;;5072582;28;20180;-80
2021/04/02 01:11:35;;;;;;;15.03;7.33;;;6.80;44.30;;;;;;5072302;28;20601;-81
2021/04/02 01:14:01;;;;;;;15.30;7.53;;;6.80;44.00;;;;;;5054492;28;20255;-80
2021/04/02 01:16:35;;;;;;;13.30;8.07;;;6.70;45.80;;;;;;5072180;28;20261;-80
2021/04/02 01:19:06;;;;;;;12.83;7.60;;;6.70;46.70;;;;;;5054597;28;20215;-81
2021/04/02 01:21:45;;;;;;;12.93;7.77;;;6.70;48.00;;;;;;5072195;28;20206;-81
2021/04/02 01:24:44;;;;;;;17.20;8.40;;;6.70;48.40;;;;;;5072386;28;20254;-78
2021/04/02 01:27:44;;;;;;;13.10;8.70;;;6.70;50.80;;;;;;5030065;28;20180;-79
2021/04/02 01:30:10;;;;;;;14.23;7.60;;;6.60;50.50;;;;;;5072147;28;20624;-79
2021/04/02 01:32:41;;;;;;;16.57;9.37;;;6.60;50.20;;;;;;5072075;28;20168;-78
2021/04/02 01:35:23;;;;;;;14.13;7.67;;;6.60;51.90;;;;;;5072503;28;20173;-80
2021/04/02 01:38:02;;;;;;;14.07;8.10;;;6.50;50.70;;;;;;5054069;28;20223;-79
2021/04/02 01:40:31;;;;;;;12.27;7.90;;;6.50;51.70;;;;;;5072033;28;20175;-80
2021/04/02 01:43:02;;;;;;;15.93;8.43;;;6.50;52.00;;;;;;5054383;28;20172;-81
2021/04/02 01:45:29;;;;;;;13.53;8.17;;;6.50;54.30;;;;;;5053948;28;20169;-79
2021/04/02 01:47:57;;;;;;;15.10;8.40;;;6.40;54.50;;;;;;5054438;28;20176;-78
2021/04/02 01:50:23;;;;;;;14.23;8.17;;;6.40;54.30;;;;;;5072010;28;20176;-79
2021/04/02 01:52:49;;;;;;;15.47;7.87;;;6.40;55.10;;;;;;5072375;28;20532;-80
2021/04/02 01:55:16;;;;;;;10.97;7.70;;;6.40;54.40;;;;;;5072504;28;20334;-78
2021/04/02 01:57:45;;;;;;;19.23;8.50;;;6.40;53.30;;;;;;5072200;28;20266;-80
2021/04/02 02:00:15;;;;;;;17.20;8.50;;;6.40;53.80;;;;;;5071905;28;20251;-80
2021/04/02 02:02:42;;;;;;;14.40;8.67;;;6.40;54.20;;;;;;5072067;28;20226;-79
2021/04/02 02:05:10;;;;;;;14.23;8.13;;;6.40;54.20;;;;;;5074116;28;20169;-81
2021/04/02 02:07:44;;;;;;;12.77;7.87;;;6.40;52.80;;;;;;5075729;28;20528;-81
2021/04/02 02:10:13;;;;;;;15.67;8.47;;;6.30;54.70;;;;;;5075782;28;20168;-79
2021/04/02 02:12:40;;;;;;;13.27;7.83;;;6.20;55.70;;;;;;5075534;28;20168;-79
2021/04/02 02:15:10;;;;;;;15.50;8.03;;;6.30;57.80;;;;;;5075350;28;20172;-79
2021/04/02 02:17:37;;;;;;;14.77;8.77;;;6.20;57.20;;;;;;5075307;28;20246;-79
2021/04/02 02:20:10;;;;;;;14.07;8.30;;;6.20;57.70;;;;;;5075338;28;20218;-79
2021/04/02 02:22:38;;;;;;;16.07;8.73;;;6.30;57.50;;;;;;5075181;28;20168;-81
2021/04/02 02:25:09;;;;;;;12.87;8.40;;;6.20;57.00;;;;;;5076501;28;20243;-80
2021/04/02 02:27:36;;;;;;;15.60;7.27;;;6.20;58.60;;;;;;5056912;28;20188;-78
2021/04/02 02:30:08;;;;;;;17.97;8.80;;;6.20;59.00;;;;;;5075347;28;20200;-79
2021/04/02 02:32:34;;;;;;;19.63;9.10;;;6.20;62.60;;;;;;5075329;28;20558;-79
2021/04/02 02:35:00;;;;;;;17.53;8.90;;;6.10;63.60;;;;;;5057101;28;20168;-78
2021/04/02 02:37:26;;;;;;;12.40;8.13;;;6.20;64.90;;;;;;5057002;28;20711;-79
2021/04/02 02:39:51;;;;;;;21.90;8.87;;;6.10;64.10;;;;;;5075262;28;20164;-82
2021/04/02 02:42:17;;;;;;;19.60;9.77;;;6.10;66.10;;;;;;5057883;28;20231;-79
2021/04/02 02:44:44;;;;;;;17.30;9.53;;;6.10;66.40;;;;;;5074782;28;20161;-80
2021/04/02 02:47:10;;;;;;;15.57;8.40;;;6.10;63.70;;;;;;5056906;28;20180;-80
2021/04/02 02:49:36;;;;;;;15.13;9.07;;;6.10;65.60;;;;;;5074707;28;20179;-78
2021/04/02 02:52:04;;;;;;;18.73;9.40;;;6.10;66.50;;;;;;5056968;28;20328;-79
2021/04/02 02:54:30;;;;;;;17.20;9.33;;;6.10;64.10;;;;;;5074969;28;20632;-80
2021/04/02 02:56:58;;;;;;;13.90;8.33;;;6.20;65.30;;;;;;5056661;28;20226;-79
2021/04/02 02:59:26;;;;;;;15.23;7.90;;;6.10;61.80;;;;;;5074474;28;20658;-80
2021/04/02 03:01:53;;;;;;;17.53;9.90;;;6.00;64.00;;;;;;5056570;28;20533;-79
2021/04/02 03:04:20;;;;;;;14.70;9.33;;;5.90;67.80;;;;;;5056653;28;20246;-80
2021/04/02 03:06:46;;;;;;;15.97;9.27;;;5.90;69.70;;;;;;5074630;28;20225;-81
2021/04/02 03:09:16;;;;;;;13.73;9.00;;;5.90;70.60;;;;;;5074370;28;20172;-80
2021/04/02 03:11:43;;;;;;;19.80;10.90;;;5.90;70.00;;;;;;5056562;28;20168;-80
2021/04/02 03:14:20;;;;;;;14.17;8.93;;;6.00;70.00;;;;;;5055950;28;20578;-79
2021/04/02 03:16:49;;;;;;;15.20;8.80;;;6.00;66.60;;;;;;5073872;28;20686;-80
2021/04/02 03:19:19;;;;;;;17.40;9.27;;;5.90;64.00;;;;;;5074137;28;20173;-79
2021/04/02 03:21:47;;;;;;;17.30;9.73;;;5.90;64.80;;;;;;5056355;28;20628;-80
2021/04/02 03:24:13;;;;;;;15.77;8.10;;;5.90;66.20;;;;;;5074020;28;20184;-79
2021/04/02 03:26:42;;;;;;;13.73;8.40;;;5.80;66.60;;;;;;5055876;28;20322;-79
2021/04/02 03:29:11;;;;;;;15.73;8.67;;;5.80;70.50;;;;;;5073785;28;20191;-81
2021/04/02 03:31:39;;;;;;;11.33;7.93;;;5.70;70.90;;;;;;5074156;28;20192;-81
2021/04/02 03:34:08;;;;;;;15.27;8.37;;;5.70;71.70;;;;;;5073763;28;20164;-78
2021/04/02 03:36:35;;;;;;;14.43;8.20;;;5.70;73.90;;;;;;5073949;28;20196;-79
2021/04/02 03:39:02;;;;;;;19.40;8.67;;;5.60;73.40;;;;;;5055715;28;20168;-80
2021/04/02 03:41:30;;;;;;;16.83;7.37;;;5.60;75.20;;;;;;5073103;28;20211;-79
2021/04/02 03:43:57;;;;;;;13.30;8.83;;;5.60;78.40;;;;;;5073921;28;20171;-79
2021/04/02 03:46:25;;;;;;;15.03;8.93;;;5.60;78.80;;;;;;5073664;28;20160;-79
2021/04/02 03:48:55;;;;;;;14.07;8.17;;;5.50;80.40;;;;;;5055636;28;20168;-81
2021/04/02 03:51:26;;;;;;;16.23;10.20;;;5.50;81.20;;;;;;5073813;28;20636;-79
2021/04/02 03:53:58;;;;;;;18.97;9.77;;;5.50;81.20;;;;;;5073289;28;20199;-81
2021/04/02 03:56:30;;;;;;;17.53;9.50;;;5.50;81.60;;;;;;5055324;28;20203;-79
2021/04/02 03:58:58;;;;;;;12.03;8.03;;;5.60;81.50;;;;;;5073351;28;20176;-78
2021/04/02 04:01:26;;;;;;;12.60;7.97;;;5.50;80.20;;;;;;5073451;28;20204;-79
2021/04/02 04:03:55;;;;;;;13.27;8.47;;;5.50;81.30;;;;;;5073231;28;20176;-81
2021/04/02 04:06:22;;;;;;;16.43;9.37;;;5.50;81.30;;;;;;5073051;28;20172;-80
2021/04/02 04:08:53;;;;;;;14.20;7.40;;;5.50;80.20;;;;;;5073111;28;20172;-80
2021/04/02 04:11:22;;;;;;;11.73;6.77;;;5.50;80.40;;;;;;5072667;28;20176;-79
2021/04/02 04:13:50;;;;;;;14.83;6.93;;;5.40;80.60;;;;;;5073036;28;20259;-79
2021/04/02 04:16:19;;;;;;;14.10;6.83;;;5.30;82.80;;;;;;5055192;28;20251;-79
2021/04/02 04:18:47;;;;;;;14.47;7.17;;;5.30;83.80;;;;;;5073154;28;20161;-79
2021/04/02 04:21:14;;;;;;;13.10;7.07;;;5.20;83.80;;;;;;5054847;28;20180;-79
2021/04/02 04:23:40;;;;;;;16.77;6.33;;;5.20;85.40;;;;;;5055153;28;20508;-79
2021/04/02 04:26:07;;;;;;;15.03;7.33;;;5.10;86.60;;;;;;5054251;28;20176;-80
2021/04/02 04:28:35;;;;;;;15.23;7.10;;;5.10;87.60;;;;;;5072356;28;20607;-80
2021/04/02 04:31:02;;;;;;;14.90;7.13;;;5.10;88.30;;;;;;5072904;28;20175;-81
2021/04/02 04:33:30;;;;;;;15.33;6.67;;;5.10;88.50;;;;;;5054998;28;20545;-79
2021/04/02 04:35:58;;;;;;;12.67;6.40;;;5.10;88.60;;;;;;5072714;28;20620;-80
2021/04/02 04:38:24;;;;;;;12.33;6.57;;;5.10;88.60;;;;;;5054843;28;20275;-80
2021/04/02 04:40:52;;;;;;;15.33;7.20;;;5.00;89.20;;;;;;5054487;28;20169;-80
2021/04/02 04:43:18;;;;;;;14.93;6.37;;;5.00;90.00;;;;;;5055024;28;20530;-79
2021/04/02 04:45:44;;;;;;;16.23;6.00;;;5.00;90.10;;;;;;5072383;28;20172;-79
2021/04/02 04:48:10;;;;;;;13.63;6.23;;;5.00;90.00;;;;;;5072602;28;20173;-81
2021/04/02 04:50:36;;;;;;;12.10;5.83;;;5.00;90.40;;;;;;5072590;28;20180;-81
2021/04/02 04:53:07;;;;;;;16.97;6.67;;;5.00;89.40;;;;;;5054733;28;20183;-81
2021/04/02 04:55:35;;;;;;;11.30;6.67;;;5.00;89.50;;;;;;5054585;28;20608;-79
2021/04/02 04:58:04;;;;;;;11.53;5.47;;;5.00;88.90;;;;;;5073464;28;20204;-79
2021/04/02 05:00:31;;;;;;;11.37;5.73;;;5.00;88.60;;;;;;5072647;28;20527;-79
2021/04/02 05:02:58;;;;;;;16.03;6.37;;;5.00;88.50;;;;;;5072193;28;20176;-79
2021/04/02 05:05:31;;;;;;;11.27;6.03;;;5.00;88.60;;;;;;5072481;28;20165;-81
2021/04/02 05:07:59;;;;;;;11.93;6.30;;;5.00;88.50;;;;;;5072073;28;20183;-80
2021/04/02 05:10:27;;;;;;;13.97;6.27;;;5.00;87.30;;;;;;5072471;28;20705;-78
2021/04/02 05:12:55;;;;;;;12.37;5.80;;;5.10;86.00;;;;;;5072482;28;20176;-81
2021/04/02 05:15:21;;;;;;;11.87;5.97;;;5.00;83.10;;;;;;5072205;28;20279;-78
2021/04/02 05:17:49;;;;;;;16.17;7.50;;;5.00;82.30;;;;;;5054323;28;20270;-80
2021/04/02 05:20:15;;;;;;;15.47;6.30;;;5.10;82.20;;;;;;5072130;28;20259;-81
2021/04/02 05:22:41;;;;;;;18.47;5.97;;;5.10;81.10;;;;;;5071978;28;20184;-80
2021/04/02 05:25:07;;;;;;;9.60;6.43;;;5.10;80.10;;;;;;5054280;28;20215;-80
2021/04/02 05:27:33;;;;;;;11.10;6.03;;;5.10;80.00;;;;;;5054531;28;20192;-78
2021/04/02 05:29:58;;;;;;;14.57;6.50;;;5.10;78.00;;;;;;5072371;28;20172;-78
2021/04/02 05:32:24;;;;;;;14.23;6.57;;;5.10;77.70;;;;;;5054223;28;20183;-80
2021/04/02 05:34:50;;;;;;;13.57;6.50;;;5.10;77.90;;;;;;5072502;28;20625;-80
2021/04/02 05:37:16;;;;;;;15.10;6.03;;;5.10;75.30;;;;;;5072060;28;20345;-79
2021/04/02 05:39:41;;;;;;;15.43;5.73;;;5.10;73.50;;;;;;5074994;28;20624;-80
2021/04/02 05:42:09;;;;;;;12.30;6.87;;;5.20;73.60;;;;;;5075695;28;20188;-80
2021/04/02 05:44:37;;;;;;;11.57;5.60;;;5.20;72.60;;;;;;5075519;28;20532;-80
2021/04/02 05:47:07;;;;;;;13.20;6.60;;;5.20;68.70;;;;;;5075905;28;20175;-79
2021/04/02 05:49:34;;;;;;;14.70;6.43;;;5.30;69.10;;;;;;5058059;28;20194;-81
2021/04/02 05:52:00;;;;;;;16.03;6.60;;;5.30;66.20;;;;;;5057248;28;20636;-80
2021/04/02 05:54:37;;;;;;;13.40;6.20;;;5.40;66.00;;;;;;5075414;28;20239;-81
2021/04/02 05:57:04;;;;;;;15.83;6.67;;;5.50;63.70;;;;;;5057695;28;20203;-79
2021/04/02 05:59:30;;;;;;;11.83;5.70;;;5.50;61.80;;;;;;5057555;28;20178;-82
2021/04/02 06:01:56;;;;;;;17.13;6.57;;;5.50;59.90;;;;;;5057597;28;20698;-79
2021/04/02 06:04:22;;;;;;;13.73;5.87;;;5.50;58.90;;;;;;5075147;28;20160;-80
2021/04/02 06:06:48;;;;;;;12.17;5.23;;;5.60;58.70;;;;;;5057313;28;20172;-80
2021/04/02 06:09:15;;;;;;;16.13;5.63;;;5.60;57.50;;;;;;5075167;28;20193;-78
2021/04/02 06:11:41;;;;;;;14.43;6.43;;;5.60;58.20;;;;;;5075190;28;20184;-79
2021/04/02 06:14:08;;;;;;;12.57;6.37;;;5.60;58.70;;;;;;5057249;28;20172;-79
2021/04/02 06:16:34;;;;;;;14.73;6.43;;;5.60;57.50;;;;;;5075042;28;20198;-78
2021/04/02 06:19:08;;;;;;;13.57;5.97;;;5.70;57.00;;;;;;5075481;28;20621;-80
2021/04/02 06:21:54;;;;;;;12.30;5.43;;;5.70;55.30;;;;;;5074669;28;20681;-80
2021/04/02 06:24:41;;;;;;;14.07;5.73;;;5.70;55.00;;;;;;5075049;28;20161;-82
2021/04/02 06:27:10;;;;;;;16.60;6.63;;;5.70;56.20;;;;;;5074159;28;20262;-82
2021/04/02 06:29:44;;;;;;;12.97;5.47;;;5.70;56.40;;;;;;5079791;28;20711;-80
2021/04/02 06:32:31;;;;;;;13.50;5.23;;;5.70;56.10;;;;;;5056104;28;20165;-83
2021/04/02 06:35:09;;;;;;;8.50;5.33;;;5.80;54.60;;;;;;5074019;28;20196;-81
2021/04/02 06:37:35;;;;;;;14.13;6.10;;;5.70;56.00;;;;;;5055848;28;20211;-83
2021/04/02 06:40:02;;;;;;;11.27;6.43;;;5.70;56.60;;;;;;5073689;28;20251;-82
2021/04/02 06:42:33;;;;;;;14.70;5.90;;;5.70;57.80;;;;;;5073622;28;20192;-80
2021/04/02 06:45:06;;;;;;;12.23;6.33;;;5.70;61.70;;;;;;5073795;28;20164;-86
2021/04/02 06:47:39;;;;;;;14.13;6.70;;;5.70;60.00;;;;;;5055733;28;20176;-83
2021/04/02 06:50:24;;;;;;;12.23;6.00;;;5.80;61.80;;;;;;5054236;28;20252;-83
2021/04/02 06:52:55;;;;;;;10.97;6.17;;;5.80;58.00;;;;;;5073786;28;20176;-84
2021/04/02 06:55:22;;;;;;;12.57;6.17;;;5.80;58.60;;;;;;5055330;28;20518;-80
2021/04/02 06:57:50;;;;;;;16.83;6.80;;;5.80;59.00;;;;;;5055123;28;20303;-83
2021/04/02 07:00:27;;;;;;;13.43;6.03;;;5.80;59.30;;;;;;5073572;28;20172;-82
2021/04/02 07:02:53;;;;;;;12.93;6.10;;;5.80;57.90;;;;;;5073811;28;20255;-82
2021/04/02 07:05:21;;;;;;;9.90;5.80;;;5.80;59.50;;;;;;5055523;28;20186;-80
2021/04/02 07:07:59;;;;;;;12.80;5.90;;;5.80;59.10;;;;;;5054845;28;20168;-82
2021/04/02 07:10:25;;;;;;;14.93;6.00;;;5.90;60.70;;;;;;5073614;28;20199;-80
2021/04/02 07:12:52;;;;;;;10.13;5.93;;;5.90;58.00;;;;;;5054870;28;20168;-80
2021/04/02 07:15:19;;;;;;;11.13;5.40;;;6.00;57.30;;;;;;5073182;28;20176;-79
2021/04/02 07:17:45;;;;;;;11.77;5.73;;;6.10;53.90;;;;;;5073010;28;20235;-84
2021/04/02 07:20:12;;;;;;;10.37;5.03;;;6.10;53.50;;;;;;5072894;28;20198;-83
2021/04/02 07:22:42;;;;;;;10.33;5.87;;;6.10;53.20;;;;;;5073238;28;20183;-81
2021/04/02 07:25:09;;;;;;;12.83;5.53;;;6.10;53.00;;;;;;5055355;28;20180;-82
2021/04/02 07:27:35;;;;;;;13.80;6.17;;;6.10;51.40;;;;;;5070656;28;20188;-82
2021/04/02 07:30:04;;;;;;;12.97;6.57;;;6.20;48.50;;;;;;5061987;28;20527;-80
2021/04/02 07:32:31;;;;;;;15.63;5.70;;;6.30;45.30;;;;;;5072790;28;20628;-82
2021/04/02 07:34:57;;;;;;;18.33;6.23;;;6.40;39.50;;;;;;5054749;28;20179;-80
2021/04/02 07:37:23;;;;;;;13.30;6.10;;;6.50;35.80;;;;;;5092875;28;20207;-84
2021/04/02 07:39:53;;;;;;;17.40;6.30;;;6.60;32.80;;;;;;5092821;28;20189;-81
2021/04/02 07:42:22;;;;;;;10.33;5.30;;;6.60;28.40;;;;;;5092677;28;20199;-81
2021/04/02 07:44:54;;;;;;;10.10;5.40;;;6.60;25.90;;;;;;5063284;28;20729;-82
2021/04/02 07:47:20;;;;;;;12.23;6.00;;;6.70;25.50;;;;;;5072679;28;20191;-80
2021/04/02 07:49:49;;;;;;;12.17;6.77;;;6.70;18.30;;;;;;5057035;28;20172;-82
2021/04/02 07:52:15;;;;;;;9.20;5.00;;;6.60;18.00;;;;;;5081911;28;20199;-80
2021/04/02 07:54:45;;;;;;;13.20;6.33;;;6.50;17.80;;;;;;5072602;28;20172;-80
2021/04/02 07:57:18;;;;;;;13.03;5.33;;;6.50;19.10;;;;;;5054463;28;20200;-81
2021/04/02 07:59:47;;;;;;;13.00;5.40;;;6.60;17.10;;;;;;5072441;28;20278;-82
2021/04/02 08:02:30;;;;;;;14.00;6.33;;;6.70;10.40;;;;;;5072404;28;20175;-82
2021/04/02 08:04:57;;;;;;;10.27;4.93;;;6.80;5.20;;;;;;5054687;28;20176;-79
2021/04/02 08:07:37;;;;;;;8.53;4.90;;;6.90;1.00;;;;;;5054717;28;20182;-79
2021/04/02 08:10:11;;;;;;;9.30;4.87;;;6.70;1.00;;;;;;5055694;28;20826;-82
2021/04/02 08:12:37;;;;;;;12.30;5.83;;;6.80;1.00;;;;;;5058255;28;20263;-82
2021/04/02 08:15:11;;;;;;;9.07;4.63;;;7.00;1.00;;;;;;5081703;28;20239;-81
2021/04/02 08:17:38;;;;;;;9.87;3.70;;;6.80;1.00;;;;;;5092070;28;20207;-84
2021/04/02 08:20:13;;;;;;;12.10;4.70;;;6.80;1.00;;;;;;5058592;28;20180;-81
2021/04/02 08:22:40;;;;;;;10.60;4.87;;;6.80;1.00;;;;;;5054260;28;20643;-80
2021/04/02 08:25:09;;;;;;;11.23;5.03;;;6.80;1.00;;;;;;5072143;28;20250;-82
2021/04/02 08:27:35;;;;;;;10.03;5.40;;;6.90;1.00;;;;;;5053482;28;20231;-80
2021/04/02 08:30:06;;;;;;;12.77;5.30;;;7.10;1.00;;;;;;5071707;28;20171;-82
2021/04/02 08:32:34;;;;;;;11.10;4.63;;;7.30;1.00;;;;;;5053526;28;20176;-82
2021/04/02 08:35:00;;;;;;;9.27;5.00;;;7.40;1.00;;;;;;5074657;28;20232;-82
2021/04/02 08:37:26;;;;;;;10.10;4.47;;;7.50;1.00;;;;;;5073826;28;20234;-80
2021/04/02 08:39:52;;;;;;;10.53;4.63;;;7.40;1.00;;;;;;5073875;28;20168;-82
2021/04/02 08:42:20;;;;;;;9.73;4.47;;;7.50;1.00;;;;;;5092225;28;20202;-81
2021/04/02 08:44:47;;;;;;;10.20;4.90;;;7.70;1.00;;;;;;5083257;28;20168;-82
2021/04/02 08:47:14;;;;;;;10.87;4.70;;;8.00;1.00;;;;;;5053591;28;20215;-84
2021/04/02 08:49:53;;;;;;;12.87;4.53;;;8.00;1.00;;;;;;5071958;28;20179;-82
2021/04/02 08:52:21;;;;;;;8.97;4.33;;;8.00;1.00;;;;;;5071572;28;20982;-83
2021/04/02 08:54:52;;;;;;;11.97;3.90;;;8.20;99.90;;;;;;5053571;28;20180;-83
2021/04/02 08:57:17;;;;;;;11.47;4.17;;;8.30;99.90;;;;;;5071431;28;20204;-81
2021/04/02 08:59:46;;;;;;;10.63;3.90;;;8.30;99.90;;;;;;5071750;28;20172;-80
2021/04/02 09:02:13;;;;;;;7.57;3.43;;;8.40;1.00;;;;;;5053693;28;20179;-80
2021/04/02 09:04:40;;;;;;;10.57;3.30;;;8.40;1.00;;;;;;5053687;28;20234;-82
2021/04/02 09:07:06;;;;;;;6.10;3.00;;;8.40;1.00;;;;;;5053894;28;20207;-82
2021/04/02 09:09:32;;;;;;;8.07;3.30;;;8.50;1.00;;;;;;5053781;28;20664;-82
2021/04/02 09:12:13;;;;;;;8.60;4.70;;;8.60;1.00;;;;;;5071572;28;20191;-82
2021/04/02 09:14:43;;;;;;;6.33;2.80;;;8.80;99.90;;;;;;5074287;28;20523;-81
2021/04/02 09:17:20;;;;;;;9.17;2.73;;;8.70;1.00;;;;;;5075419;28;20625;-80
2021/04/02 09:19:46;;;;;;;6.17;3.20;;;8.40;1.00;;;;;;5057369;28;20179;-82
2021/04/02 09:22:13;;;;;;;9.20;3.60;;;8.40;10.90;;;;;;5057592;28;20183;-82
2021/04/02 09:24:43;;;;;;;10.17;3.43;;;8.50;1.00;;;;;;5057748;28;20207;-82
2021/04/02 09:27:14;;;;;;;10.93;3.50;;;8.60;1.00;;;;;;5075297;28;20188;-78
2021/04/02 09:29:47;;;;;;;9.93;3.60;;;8.70;99.90;;;;;;5074972;28;20173;-84
2021/04/02 09:32:13;;;;;;;7.90;3.80;;;8.60;1.00;;;;;;5075680;28;20164;-82
2021/04/02 09:34:39;;;;;;;10.67;3.97;;;8.70;9.00;;;;;;5057344;28;20176;-81
2021/04/02 09:37:05;;;;;;;9.13;3.80;;;8.80;99.90;;;;;;5057291;28;20356;-84
2021/04/02 09:39:33;;;;;;;7.57;2.63;;;8.70;1.00;;;;;;5057253;28;20279;-83
2021/04/02 09:42:01;;;;;;;8.33;3.27;;;8.50;1.00;;;;;;5056254;28;20226;-83
2021/04/02 09:44:29;;;;;;;7.20;2.90;;;8.50;1.00;;;;;;5057009;28;20264;-82
2021/04/02 09:47:25;;;;;;;6.73;3.10;;;8.50;99.90;;;;;;5074662;28;20177;-83
2021/04/02 09:49:51;;;;;;;11.27;3.40;;;8.50;1.00;;;;;;5042395;28;20652;-81
2021/04/02 09:52:17;;;;;;;6.30;2.60;;;8.50;1.00;;;;;;5060098;28;20200;-83
2021/04/02 09:54:43;;;;;;;7.23;3.40;;;8.40;1.00;;;;;;5087012;28;20263;-81
2021/04/02 09:57:09;;;;;;;5.70;2.93;;;8.40;1.00;;;;;;5072491;28;20262;-83
2021/04/02 09:59:36;;;;;;;8.00;3.20;;;8.50;99.90;;;;;;5093318;28;20172;-81
2021/04/02 10:02:03;;;;;;;8.20;3.00;;;8.40;99.90;;;;;;5076415;28;20179;-83
2021/04/02 10:04:29;;;;;;;12.57;3.43;;;8.50;97.30;;;;;;5076597;28;20703;-80
2021/04/02 10:06:55;;;;;;;6.07;3.13;;;8.50;1.00;;;;;;5069919;28;20271;-79
2021/04/02 10:09:20;;;;;;;8.30;3.43;;;8.60;1.00;;;;;;5085675;28;20237;-79
2021/04/02 10:11:48;;;;;;;6.07;2.90;;;8.70;1.00;;;;;;5068173;28;20620;-81
2021/04/02 10:14:15;;;;;;;7.77;3.40;;;8.70;1.00;;;;;;5057232;28;20181;-82
2021/04/02 10:16:44;;;;;;;13.50;3.67;;;8.90;99.90;;;;;;5072651;28;20203;-82
2021/04/02 10:19:10;;;;;;;13.97;3.53;;;9.10;1.00;;;;;;5065313;28;20172;-79
2021/04/02 10:21:36;;;;;;;9.07;3.80;;;9.30;1.00;;;;;;5074002;28;20687;-80
2021/04/02 10:24:01;;;;;;;4.77;2.63;;;9.30;99.90;;;;;;5074261;28;20176;-82
2021/04/02 10:26:28;;;;;;;11.80;4.30;;;9.40;99.90;;;;;;5073221;28;20229;-82
2021/04/02 10:28:55;;;;;;;7.60;2.67;;;9.60;79.30;;;;;;5073458;28;20196;-81
2021/04/02 10:31:20;;;;;;;9.23;3.13;;;9.70;1.00;;;;;;5074068;28;20179;-83
2021/04/02 10:33:46;;;;;;;6.47;2.73;;;9.70;1.00;;;;;;5073645;28;20172;-81
2021/04/02 10:36:12;;;;;;;6.73;2.90;;;9.90;1.00;;;;;;5056105;28;20681;-80
2021/04/02 10:38:39;;;;;;;6.40;2.63;;;9.80;1.00;;;;;;5055858;28;20199;-81
2021/04/02 10:41:04;;;;;;;7.63;2.80;;;10.00;1.00;;;;;;5073850;28;20249;-83
2021/04/02 10:43:31;;;;;;;6.90;3.10;;;9.90;1.00;;;;;;5073470;28;20269;-81
2021/04/02 10:45:57;;;;;;;6.67;2.90;;;9.80;1.00;;;;;;5073514;28;20194;-80
2021/04/02 10:48:23;;;;;;;11.70;2.77;;;9.70;1.00;;;;;;5073459;28;20179;-81
2021/04/02 10:50:49;;;;;;;5.50;3.00;;;9.70;1.00;;;;;;5073273;28;20188;-82
2021/04/02 10:53:16;;;;;;;6.43;2.70;;;9.70;99.90;;;;;;5055787;28;20177;-81
2021/04/02 10:55:42;;;;;;;6.33;2.90;;;9.50;99.90;;;;;;5073796;28;20176;-81
2021/04/02 10:58:07;;;;;;;7.10;2.80;;;9.70;99.90;;;;;;5072986;28;20615;-80
2021/04/02 11:00:34;;;;;;;6.07;2.60;;;9.90;99.90;;;;;;5073366;28;20238;-80
2021/04/02 11:03:01;;;;;;;7.73;3.30;;;10.00;99.90;;;;;;5072904;28;20176;-81
2021/04/02 11:05:26;;;;;;;7.10;3.27;;;10.30;99.90;;;;;;5055492;28;20168;-80
2021/04/02 11:07:52;;;;;;;7.10;2.50;;;10.30;99.90;;;;;;5055650;28;20701;-80
2021/04/02 11:10:18;;;;;;;9.37;3.57;;;9.90;99.90;;;;;;5073142;28;20192;-78
2021/04/02 11:12:44;;;;;;;5.47;2.70;;;9.70;99.90;;;;;;5073204;28;20173;-80
2021/04/02 11:15:12;;;;;;;6.47;2.10;;;9.80;99.90;;;;;;5073201;28;20164;-82
2021/04/02 11:17:39;;;;;;;7.47;2.60;;;9.80;64.20;;;;;;5072812;28;20200;-83
2021/04/02 11:20:05;;;;;;;5.77;2.57;;;9.80;57.90;;;;;;5072390;28;20172;-78
2021/04/02 11:22:31;;;;;;;6.50;2.60;;;9.60;99.90;;;;;;5072864;28;20629;-81
2021/04/02 11:24:57;;;;;;;8.23;2.90;;;9.80;99.90;;;;;;5054773;28;20213;-83
2021/04/02 11:27:22;;;;;;;8.10;2.70;;;9.80;99.90;;;;;;5054935;28;20640;-81
2021/04/02 11:29:48;;;;;;;7.37;3.10;;;9.80;99.90;;;;;;5073511;28;20176;-81
2021/04/02 11:32:14;;;;;;;8.63;3.00;;;9.70;99.90;;;;;;5093395;28;20170;-79
2021/04/02 11:34:42;;;;;;;6.77;3.13;;;9.60;1.00;;;;;;5092636;28;20171;-81
2021/04/02 11:37:08;;;;;;;6.00;3.30;;;9.80;6.30;;;;;;5071999;28;20267;-80
2021/04/02 11:39:35;;;;;;;7.00;2.50;;;9.80;1.00;;;;;;5074186;28;20645;-81
2021/04/02 11:42:00;;;;;;;8.37;3.17;;;9.90;1.00;;;;;;5072878;28;20177;-81
2021/04/02 11:44:26;;;;;;;5.47;2.50;;;10.10;1.00;;;;;;5054133;28;20180;-82
2021/04/02 11:46:52;;;;;;;5.40;2.60;;;10.20;1.00;;;;;;5072471;28;20198;-81
2021/04/02 11:49:18;;;;;;;10.53;3.50;;;10.40;1.00;;;;;;5072590;28;20167;-81
2021/04/02 11:51:45;;;;;;;11.33;3.37;;;10.60;1.00;;;;;;5054257;28;20180;-84
2021/04/02 11:54:11;;;;;;;5.47;2.67;;;10.70;1.00;;;;;;5072220;28;20229;-83
2021/04/02 11:56:38;;;;;;;6.20;3.07;;;10.90;1.00;;;;;;5072334;28;20249;-80
2021/04/02 11:59:03;;;;;;;7.27;4.43;;;11.00;1.00;;;;;;5054338;28;20195;-81
2021/04/02 12:01:29;;;;;;;7.00;3.70;;;10.90;1.00;;;;;;5072287;28;20648;-82
2021/04/02 12:03:55;;;;;;;8.70;3.13;;;10.70;1.00;;;;;;5072083;28;20256;-82
2021/04/02 12:06:21;;;;;;;11.30;4.87;;;10.70;1.00;;;;;;5072001;28;20183;-81
2021/04/02 12:08:47;;;;;;;7.90;3.73;;;10.50;1.30;;;;;;5072236;28;20168;-80
2021/04/02 12:11:13;;;;;;;7.97;3.90;;;10.50;24.50;;;;;;5054344;28;20184;-82
2021/04/02 12:13:38;;;;;;;11.57;4.23;;;10.40;22.00;;;;;;5071938;28;20259;-81
2021/04/02 12:16:04;;;;;;;7.97;4.10;;;10.30;50.10;;;;;;5053777;28;20176;-81
2021/04/02 12:18:30;;;;;;;7.10;3.77;;;10.40;1.00;;;;;;5072112;28;20271;-79
2021/04/02 12:20:56;;;;;;;6.23;4.00;;;10.40;1.00;;;;;;5071702;28;20318;-81
2021/04/02 12:23:22;;;;;;;7.80;3.83;;;10.50;1.00;;;;;;5053687;28;20537;-81
2021/04/02 12:25:48;;;;;;;8.73;3.47;;;10.60;1.00;;;;;;5071543;28;20253;-82
2021/04/02 12:28:13;;;;;;;4.33;3.00;;;10.60;1.00;;;;;;5054072;28;20192;-84
2021/04/02 12:30:39;;;;;;;10.37;4.10;;;10.40;1.00;;;;;;5053971;28;20183;-82
2021/04/02 12:33:05;;;;;;;7.93;4.70;;;10.50;1.00;;;;;;5054230;28;20266;-82
2021/04/02 12:35:32;;;;;;;8.10;5.13;;;10.50;1.00;;;;;;5072829;28;20172;-80
2021/04/02 12:37:58;;;;;;;8.97;5.13;;;10.60;1.00;;;;;;5072626;28;20254;-82
2021/04/02 12:40:25;;;;;;;8.57;5.50;;;10.50;1.00;;;;;;5071794;28;20641;-81
2021/04/02 12:42:51;;;;;;;6.00;3.70;;;10.60;1.00;;;;;;5071998;28;20172;-82
2021/04/02 12:45:17;;;;;;;7.50;4.70;;;10.60;1.00;;;;;;5071362;28;20207;-82
2021/04/02 12:47:44;;;;;;;7.57;4.60;;;10.20;1.00;;;;;;5071095;28;20247;-78
2021/04/02 12:50:19;;;;;;;7.90;4.57;;;10.30;1.00;;;;;;5071371;28;20253;-79
2021/04/02 12:52:45;;;;;;;12.27;4.27;;;10.30;1.00;;;;;;5071267;28;20650;-83
2021/04/02 12:55:16;;;;;;;7.70;4.10;;;10.50;1.00;;;;;;5053001;28;20169;-82